Accueil
METAR-TAF:

METAR-TAF

Aéroports :

Homer, Alaska, États-Unis

latitude: 59-39N, longitude: 151-29W, altitude: 26 m

Observation

Le bulletin a été fait il y a 1 heure et 4 minutes, à 21:53 UTC
Vent 3 kt de est/nord-est
Température -3°C
Humidité 74%
Pression 1014 hPa
Visibilité: 16.1 km
Ciel clair

METAR: PAHO 282153Z 06003KT 10SM CLR M03/M07 A2993 RMK AO2 SLP138 T10281067

Heure: 13:57 (22:57 UTC)

Prévision

Le bulletin a été fait il y a 5 heures et 32 minutes, à 17:25 UTC
Prévision valable du 28 à 18 UTC au 29 à 18 UTC
Vent 6 kt de nord
Visibilité: 10 km
Ciel clair

TAF: PAHO 281725Z 2818/2918 36006KT P6SM SKC

Observations et prévisions météorologiques de plus de 4000 aéroports (messages METAR et TAF).

Les stations disponibles sont représentées par des disques jaunes et rouges sur la carte.

Passer la souris dessus pour voir le nom de la station.

Cliquer dessus pour voir les observations et prévisions météorologiques.

Pour changer de carte: cliquez sur les boutons verts avec une croix noire pour zoomer, sur le bouton vert avec un tiret pour effectuer un zoom arrière, ou sur les flèches vertes pour les cartes adjacentes.


METAR-TAF: